Weather at Central Illinois Regional Airport at Bloomington-Normal

Public forecast

Using degrees Fahrenheit for public forecast. Weather courtesy of forecast.io.

Current aviation weather report (METAR) for Central Illinois Regional Airport at Bloomington-Normal

Report is more than 2 hours old.

2024/06/24 20:56 (retrieved 6 hours ago)

KBMI 242056Z 21010KT 10SM CLR 31/18 A2996 RMK AO2 SLP133 T03110178 58014

Aviation forecast (TAF) for Central Illinois Regional Airport at Bloomington-Normal

Forecast is more than 6 hours old.

2024/06/24 18:22 (retrieved 8 hours ago)

TAF KBMI 241720Z 2418/2518 19011KT P6SM SCT080 BKN120 FM250100 16009KT P6SM SCT120 FM250800 20012KT P6SM SCT120 BKN250 FM251300 24015G21KT P6SM BKN080 PROB30 2513/2516 3SM -TSRA BKN025CB